sensor_id;sensor_type;location;lat;lon;timestamp;pressure;altitude;pressure_sealevel;temperature;humidity
64632;BME280;58358;50.936;0.246;2023-02-14T00:01:40;102671.71;;;2.83;60.31
64632;BME280;58358;50.936;0.246;2023-02-14T00:04:05;102676.76;;;2.71;60.83
64632;BME280;58358;50.936;0.246;2023-02-14T00:06:31;102672.32;;;2.97;59.91
64632;BME280;58358;50.936;0.246;2023-02-14T00:08:56;102675.18;;;1.56;61.36
64632;BME280;58358;50.936;0.246;2023-02-14T00:11:21;102676.55;;;2.07;61.14
64632;BME280;58358;50.936;0.246;2023-02-14T00:13:47;102671.07;;;3.37;58.96
64632;BME280;58358;50.936;0.246;2023-02-14T00:16:13;102677.48;;;1.35;63.05
64632;BME280;58358;50.936;0.246;2023-02-14T00:18:38;102670.60;;;2.73;60.47
64632;BME280;58358;50.936;0.246;2023-02-14T00:21:03;102668.81;;;2.69;59.22
64632;BME280;58358;50.936;0.246;2023-02-14T00:23:29;102674.23;;;2.75;59.86
64632;BME280;58358;50.936;0.246;2023-02-14T00:25:54;102673.19;;;2.41;60.11
64632;BME280;58358;50.936;0.246;2023-02-14T00:28:20;102678.93;;;2.15;62.45
64632;BME280;58358;50.936;0.246;2023-02-14T00:30:45;102677.30;;;2.22;61.97
64632;BME280;58358;50.936;0.246;2023-02-14T00:33:11;102675.62;;;1.75;62.82
64632;BME280;58358;50.936;0.246;2023-02-14T00:35:37;102676.58;;;1.90;62.58
64632;BME280;58358;50.936;0.246;2023-02-14T00:38:02;102674.22;;;-0.04;67.36
64632;BME280;58358;50.936;0.246;2023-02-14T00:40:28;102676.25;;;1.80;64.86
64632;BME280;58358;50.936;0.246;2023-02-14T00:42:53;102674.76;;;2.64;61.63
64632;BME280;58358;50.936;0.246;2023-02-14T00:45:18;102674.48;;;2.29;61.94
64632;BME280;58358;50.936;0.246;2023-02-14T00:47:44;102677.01;;;2.49;62.15
64632;BME280;58358;50.936;0.246;2023-02-14T00:50:10;102671.08;;;2.86;61.68
64632;BME280;58358;50.936;0.246;2023-02-14T00:52:35;102670.81;;;2.20;62.41
64632;BME280;58358;50.936;0.246;2023-02-14T00:55:00;102666.32;;;3.13;60.50
64632;BME280;58358;50.936;0.246;2023-02-14T00:57:25;102673.59;;;1.50;61.98
64632;BME280;58358;50.936;0.246;2023-02-14T00:59:50;102669.65;;;1.73;64.29
64632;BME280;58358;50.936;0.246;2023-02-14T01:02:16;102665.36;;;1.97;64.31
64632;BME280;58358;50.936;0.246;2023-02-14T01:04:41;102657.52;;;2.99;60.93
64632;BME280;58358;50.936;0.246;2023-02-14T01:07:06;102665.42;;;2.41;62.39
64632;BME280;58358;50.936;0.246;2023-02-14T01:09:32;102661.88;;;1.71;64.70
64632;BME280;58358;50.936;0.246;2023-02-14T01:11:57;102661.70;;;1.56;65.25
64632;BME280;58358;50.936;0.246;2023-02-14T01:14:22;102656.67;;;2.08;64.00
64632;BME280;58358;50.936;0.246;2023-02-14T01:16:48;102659.46;;;1.87;63.76
64632;BME280;58358;50.936;0.246;2023-02-14T01:19:13;102658.28;;;1.92;64.95
64632;BME280;58358;50.936;0.246;2023-02-14T01:21:40;102656.27;;;2.33;63.08
64632;BME280;58358;50.936;0.246;2023-02-14T01:24:06;102653.81;;;2.03;63.52
64632;BME280;58358;50.936;0.246;2023-02-14T01:26:29;102646.50;;;2.94;61.36
64632;BME280;58358;50.936;0.246;2023-02-14T01:28:56;102650.08;;;3.09;61.58
64632;BME280;58358;50.936;0.246;2023-02-14T01:31:22;102646.97;;;2.63;60.87
64632;BME280;58358;50.936;0.246;2023-02-14T01:33:48;102652.25;;;1.52;63.09
64632;BME280;58358;50.936;0.246;2023-02-14T01:36:16;102653.67;;;2.10;62.54
64632;BME280;58358;50.936;0.246;2023-02-14T01:38:36;102653.51;;;1.80;62.86
64632;BME280;58358;50.936;0.246;2023-02-14T01:41:01;102652.72;;;2.18;62.19
64632;BME280;58358;50.936;0.246;2023-02-14T01:43:27;102655.93;;;2.35;62.02
64632;BME280;58358;50.936;0.246;2023-02-14T01:45:53;102654.44;;;2.61;60.64
64632;BME280;58358;50.936;0.246;2023-02-14T01:48:20;102656.72;;;2.33;61.18
64632;BME280;58358;50.936;0.246;2023-02-14T01:50:45;102658.36;;;2.20;62.08
64632;BME280;58358;50.936;0.246;2023-02-14T01:53:15;102654.43;;;1.57;63.63
64632;BME280;58358;50.936;0.246;2023-02-14T01:55:37;102656.10;;;2.56;62.24
64632;BME280;58358;50.936;0.246;2023-02-14T01:58:03;102658.10;;;2.12;62.42
64632;BME280;58358;50.936;0.246;2023-02-14T02:00:25;102651.78;;;2.61;62.95
64632;BME280;58358;50.936;0.246;2023-02-14T02:02:51;102644.18;;;2.84;62.43
64632;BME280;58358;50.936;0.246;2023-02-14T02:05:17;102649.68;;;1.57;65.48
64632;BME280;58358;50.936;0.246;2023-02-14T02:07:41;102648.34;;;1.94;63.39
64632;BME280;58358;50.936;0.246;2023-02-14T02:10:08;102641.94;;;2.81;62.34
64632;BME280;58358;50.936;0.246;2023-02-14T02:12:33;102638.47;;;2.69;61.98
64632;BME280;58358;50.936;0.246;2023-02-14T02:14:58;102639.08;;;2.76;61.24
64632;BME280;58358;50.936;0.246;2023-02-14T02:17:28;102644.41;;;1.51;64.29
64632;BME280;58358;50.936;0.246;2023-02-14T02:24:51;102639.37;;;2.06;64.06
64632;BME280;58358;50.936;0.246;2023-02-14T02:27:19;102638.54;;;2.53;61.43
64632;BME280;58358;50.936;0.246;2023-02-14T02:36:57;102622.23;;;1.55;65.12
64632;BME280;58358;50.936;0.246;2023-02-14T02:39:27;102631.32;;;1.13;65.45
64632;BME280;58358;50.936;0.246;2023-02-14T02:41:47;102636.07;;;1.36;64.57
64632;BME280;58358;50.936;0.246;2023-02-14T02:44:14;102627.86;;;0.98;68.29
64632;BME280;58358;50.936;0.246;2023-02-14T02:46:33;102621.20;;;0.84;68.32
64632;BME280;58358;50.936;0.246;2023-02-14T02:49:02;102624.55;;;1.61;65.11
64632;BME280;58358;50.936;0.246;2023-02-14T02:51:29;102625.75;;;1.55;66.65
64632;BME280;58358;50.936;0.246;2023-02-14T02:53:51;102626.98;;;1.22;66.85
64632;BME280;58358;50.936;0.246;2023-02-14T02:56:17;102625.14;;;1.67;65.02
64632;BME280;58358;50.936;0.246;2023-02-14T02:58:41;102620.66;;;1.17;66.94
64632;BME280;58358;50.936;0.246;2023-02-14T03:01:09;102619.06;;;1.39;68.28
64632;BME280;58358;50.936;0.246;2023-02-14T03:03:30;102617.88;;;-0.43;70.44
64632;BME280;58358;50.936;0.246;2023-02-14T03:05:54;102619.96;;;1.31;69.66
64632;BME280;58358;50.936;0.246;2023-02-14T03:08:19;102620.35;;;1.74;67.60
64632;BME280;58358;50.936;0.246;2023-02-14T03:10:45;102620.20;;;0.85;68.07
64632;BME280;58358;50.936;0.246;2023-02-14T03:15:46;102616.96;;;1.64;65.94
64632;BME280;58358;50.936;0.246;2023-02-14T03:18:07;102612.13;;;1.95;64.83
64632;BME280;58358;50.936;0.246;2023-02-14T03:20:34;102613.40;;;1.92;65.38
64632;BME280;58358;50.936;0.246;2023-02-14T03:22:57;102615.31;;;1.58;63.84
64632;BME280;58358;50.936;0.246;2023-02-14T03:25:30;102616.14;;;2.12;64.31
64632;BME280;58358;50.936;0.246;2023-02-14T03:27:45;102610.75;;;2.10;63.44
64632;BME280;58358;50.936;0.246;2023-02-14T03:30:13;102606.59;;;1.66;63.53
64632;BME280;58358;50.936;0.246;2023-02-14T03:32:40;102608.28;;;2.14;63.33
64632;BME280;58358;50.936;0.246;2023-02-14T03:35:06;102615.15;;;2.23;63.71
64632;BME280;58358;50.936;0.246;2023-02-14T03:37:28;102613.74;;;1.30;65.46
64632;BME280;58358;50.936;0.246;2023-02-14T03:39:58;102604.84;;;2.00;63.58
64632;BME280;58358;50.936;0.246;2023-02-14T03:42:22;102608.29;;;0.37;69.81
64632;BME280;58358;50.936;0.246;2023-02-14T03:44:43;102614.05;;;0.88;66.60
64632;BME280;58358;50.936;0.246;2023-02-14T03:47:10;102610.26;;;1.28;66.65
64632;BME280;58358;50.936;0.246;2023-02-14T03:49:37;102612.55;;;1.49;66.19
64632;BME280;58358;50.936;0.246;2023-02-14T03:52:00;102609.55;;;1.83;65.21
64632;BME280;58358;50.936;0.246;2023-02-14T03:54:25;102612.30;;;1.48;66.59
64632;BME280;58358;50.936;0.246;2023-02-14T03:56:53;102612.06;;;1.80;64.39
64632;BME280;58358;50.936;0.246;2023-02-14T03:59:18;102610.42;;;1.99;63.05
64632;BME280;58358;50.936;0.246;2023-02-14T04:01:46;102609.15;;;1.55;64.26
64632;BME280;58358;50.936;0.246;2023-02-14T04:04:06;102607.06;;;2.14;63.50
64632;BME280;58358;50.936;0.246;2023-02-14T04:06:31;102607.47;;;2.06;62.83
64632;BME280;58358;50.936;0.246;2023-02-14T04:08:56;102609.67;;;2.00;62.84
64632;BME280;58358;50.936;0.246;2023-02-14T04:11:21;102602.63;;;2.36;63.08
64632;BME280;58358;50.936;0.246;2023-02-14T04:13:47;102602.33;;;2.28;62.62
64632;BME280;58358;50.936;0.246;2023-02-14T04:16:13;102605.47;;;2.18;62.48
64632;BME280;58358;50.936;0.246;2023-02-14T04:18:39;102603.33;;;2.71;61.79
64632;BME280;58358;50.936;0.246;2023-02-14T04:21:05;102601.57;;;-0.22;67.05
64632;BME280;58358;50.936;0.246;2023-02-14T04:23:30;102601.64;;;2.23;63.76
64632;BME280;58358;50.936;0.246;2023-02-14T04:25:55;102605.26;;;1.84;63.46
64632;BME280;58358;50.936;0.246;2023-02-14T04:28:21;102601.55;;;2.54;62.75
64632;BME280;58358;50.936;0.246;2023-02-14T04:30:46;102600.99;;;3.04;61.22
64632;BME280;58358;50.936;0.246;2023-02-14T04:33:11;102606.95;;;0.82;64.67
64632;BME280;58358;50.936;0.246;2023-02-14T04:35:37;102601.59;;;2.34;63.35
64632;BME280;58358;50.936;0.246;2023-02-14T04:38:03;102601.07;;;2.00;64.11
64632;BME280;58358;50.936;0.246;2023-02-14T04:40:28;102603.19;;;1.74;62.07
64632;BME280;58358;50.936;0.246;2023-02-14T04:42:53;102601.49;;;-1.28;73.28
64632;BME280;58358;50.936;0.246;2023-02-14T04:45:19;102603.84;;;1.16;67.85
64632;BME280;58358;50.936;0.246;2023-02-14T04:47:45;102597.09;;;2.22;64.61
64632;BME280;58358;50.936;0.246;2023-02-14T04:50:10;102596.10;;;1.84;64.50
64632;BME280;58358;50.936;0.246;2023-02-14T04:52:35;102589.68;;;3.11;62.08
64632;BME280;58358;50.936;0.246;2023-02-14T04:55:00;102592.02;;;2.71;62.47
64632;BME280;58358;50.936;0.246;2023-02-14T04:57:26;102590.27;;;2.47;62.69
64632;BME280;58358;50.936;0.246;2023-02-14T04:59:51;102589.21;;;2.35;62.00
64632;BME280;58358;50.936;0.246;2023-02-14T05:02:16;102593.39;;;2.44;62.92
64632;BME280;58358;50.936;0.246;2023-02-14T05:04:42;102594.63;;;0.05;67.30
64632;BME280;58358;50.936;0.246;2023-02-14T05:07:07;102598.91;;;0.58;71.31
64632;BME280;58358;50.936;0.246;2023-02-14T05:09:32;102601.78;;;1.24;69.48
64632;BME280;58358;50.936;0.246;2023-02-14T05:11:58;102601.40;;;1.88;66.73
64632;BME280;58358;50.936;0.246;2023-02-14T05:14:24;102598.40;;;0.02;71.92
64632;BME280;58358;50.936;0.246;2023-02-14T05:16:49;102602.95;;;1.16;67.38
64632;BME280;58358;50.936;0.246;2023-02-14T05:19:14;102602.41;;;1.11;67.82
64632;BME280;58358;50.936;0.246;2023-02-14T05:21:40;102599.12;;;0.63;71.21
64632;BME280;58358;50.936;0.246;2023-02-14T05:24:05;102605.41;;;0.80;68.68
64632;BME280;58358;50.936;0.246;2023-02-14T05:26:30;102604.82;;;1.27;68.02
64632;BME280;58358;50.936;0.246;2023-02-14T05:28:56;102599.98;;;1.64;64.78
64632;BME280;58358;50.936;0.246;2023-02-14T05:31:21;102599.04;;;0.83;66.55
64632;BME280;58358;50.936;0.246;2023-02-14T05:33:47;102597.31;;;-0.04;70.68
64632;BME280;58358;50.936;0.246;2023-02-14T05:36:12;102602.33;;;1.28;67.79
64632;BME280;58358;50.936;0.246;2023-02-14T05:38:37;102601.87;;;1.01;66.22
64632;BME280;58358;50.936;0.246;2023-02-14T05:41:04;102598.75;;;1.01;67.60
64632;BME280;58358;50.936;0.246;2023-02-14T05:43:28;102597.71;;;-0.20;69.90
64632;BME280;58358;50.936;0.246;2023-02-14T05:45:54;102603.14;;;-0.43;70.92
64632;BME280;58358;50.936;0.246;2023-02-14T05:48:19;102602.00;;;0.33;68.74
64632;BME280;58358;50.936;0.246;2023-02-14T05:50:44;102598.87;;;1.31;67.65
64632;BME280;58358;50.936;0.246;2023-02-14T05:53:10;102595.30;;;1.95;63.96
64632;BME280;58358;50.936;0.246;2023-02-14T05:55:35;102595.60;;;1.67;64.73
64632;BME280;58358;50.936;0.246;2023-02-14T05:58:01;102599.56;;;1.30;65.04
64632;BME280;58358;50.936;0.246;2023-02-14T06:00:26;102597.80;;;0.59;70.05
64632;BME280;58358;50.936;0.246;2023-02-14T06:02:51;102599.63;;;-0.40;73.40
64632;BME280;58358;50.936;0.246;2023-02-14T06:05:16;102597.42;;;0.93;68.81
64632;BME280;58358;50.936;0.246;2023-02-14T06:07:41;102595.01;;;0.72;69.13
64632;BME280;58358;50.936;0.246;2023-02-14T06:10:08;102599.32;;;1.01;67.05
64632;BME280;58358;50.936;0.246;2023-02-14T06:12:32;102602.12;;;1.50;65.84
64632;BME280;58358;50.936;0.246;2023-02-14T06:14:58;102597.52;;;0.83;67.61
64632;BME280;58358;50.936;0.246;2023-02-14T06:17:24;102602.30;;;1.11;67.05
64632;BME280;58358;50.936;0.246;2023-02-14T06:19:49;102602.01;;;0.17;69.08
64632;BME280;58358;50.936;0.246;2023-02-14T06:22:15;102603.52;;;0.51;70.12
64632;BME280;58358;50.936;0.246;2023-02-14T06:24:41;102608.96;;;0.84;69.42
64632;BME280;58358;50.936;0.246;2023-02-14T06:27:06;102610.97;;;1.02;67.03
64632;BME280;58358;50.936;0.246;2023-02-14T06:29:32;102612.87;;;1.68;65.16
64632;BME280;58358;50.936;0.246;2023-02-14T06:31:57;102611.43;;;0.34;67.53
64632;BME280;58358;50.936;0.246;2023-02-14T06:34:22;102614.56;;;0.63;67.28
64632;BME280;58358;50.936;0.246;2023-02-14T06:36:48;102611.93;;;1.34;65.70
64632;BME280;58358;50.936;0.246;2023-02-14T06:39:13;102610.00;;;0.35;67.02
64632;BME280;58358;50.936;0.246;2023-02-14T06:41:40;102608.05;;;-0.50;72.86
64632;BME280;58358;50.936;0.246;2023-02-14T06:44:05;102608.97;;;-0.81;71.05
64632;BME280;58358;50.936;0.246;2023-02-14T06:46:31;102611.16;;;0.20;70.69
64632;BME280;58358;50.936;0.246;2023-02-14T06:48:57;102615.45;;;0.88;68.07
64632;BME280;58358;50.936;0.246;2023-02-14T06:51:22;102615.41;;;0.74;69.70
64632;BME280;58358;50.936;0.246;2023-02-14T06:53:48;102619.02;;;-0.22;72.84
64632;BME280;58358;50.936;0.246;2023-02-14T06:56:13;102620.61;;;0.80;69.87
64632;BME280;58358;50.936;0.246;2023-02-14T06:58:39;102625.49;;;0.90;70.10
64632;BME280;58358;50.936;0.246;2023-02-14T07:01:05;102626.87;;;0.59;71.46
64632;BME280;58358;50.936;0.246;2023-02-14T07:03:30;102628.73;;;-1.06;74.70
64632;BME280;58358;50.936;0.246;2023-02-14T07:05:56;102629.67;;;-0.62;76.99
64632;BME280;58358;50.936;0.246;2023-02-14T07:08:21;102624.58;;;0.67;73.96
64632;BME280;58358;50.936;0.246;2023-02-14T07:10:46;102629.54;;;-0.28;74.84
64632;BME280;58358;50.936;0.246;2023-02-14T07:13:12;102630.75;;;0.68;72.14
64632;BME280;58358;50.936;0.246;2023-02-14T07:15:38;102633.17;;;0.94;70.42
64632;BME280;58358;50.936;0.246;2023-02-14T07:18:04;102638.57;;;1.42;69.49
64632;BME280;58358;50.936;0.246;2023-02-14T07:20:29;102638.12;;;0.51;73.78
64632;BME280;58358;50.936;0.246;2023-02-14T07:22:54;102636.99;;;0.57;73.33
64632;BME280;58358;50.936;0.246;2023-02-14T07:25:20;102639.50;;;1.42;70.44
64632;BME280;58358;50.936;0.246;2023-02-14T07:27:45;102638.73;;;-0.48;76.17
64632;BME280;58358;50.936;0.246;2023-02-14T07:30:11;102644.83;;;0.78;74.50
64632;BME280;58358;50.936;0.246;2023-02-14T07:32:36;102646.14;;;0.87;73.64
64632;BME280;58358;50.936;0.246;2023-02-14T07:35:01;102644.21;;;0.61;74.06
64632;BME280;58358;50.936;0.246;2023-02-14T07:37:26;102645.92;;;0.10;78.20
64632;BME280;58358;50.936;0.246;2023-02-14T07:39:52;102645.68;;;1.16;72.98
64632;BME280;58358;50.936;0.246;2023-02-14T07:42:17;102645.48;;;0.29;77.50
64632;BME280;58358;50.936;0.246;2023-02-14T07:44:43;102643.12;;;0.24;76.98
64632;BME280;58358;50.936;0.246;2023-02-14T07:47:09;102651.30;;;-0.92;84.40
64632;BME280;58358;50.936;0.246;2023-02-14T07:49:34;102656.06;;;0.19;83.47
64632;BME280;58358;50.936;0.246;2023-02-14T07:51:59;102654.48;;;0.71;78.63
64632;BME280;58358;50.936;0.246;2023-02-14T07:54:24;102659.04;;;0.34;82.30
64632;BME280;58358;50.936;0.246;2023-02-14T07:56:49;102663.15;;;1.08;79.48
64632;BME280;58358;50.936;0.246;2023-02-14T07:59:15;102665.27;;;2.35;74.54
64632;BME280;58358;50.936;0.246;2023-02-14T08:01:41;102659.89;;;1.49;76.35
64632;BME280;58358;50.936;0.246;2023-02-14T08:04:06;102662.29;;;1.92;74.71
64632;BME280;58358;50.936;0.246;2023-02-14T08:06:31;102662.51;;;1.56;77.63
64632;BME280;58358;50.936;0.246;2023-02-14T08:08:57;102659.98;;;2.06;75.48
64632;BME280;58358;50.936;0.246;2023-02-14T08:11:22;102659.81;;;1.90;73.91
64632;BME280;58358;50.936;0.246;2023-02-14T08:13:48;102654.89;;;2.28;72.66
64632;BME280;58358;50.936;0.246;2023-02-14T08:16:13;102653.43;;;2.53;71.76
64632;BME280;58358;50.936;0.246;2023-02-14T08:18:41;102654.10;;;1.37;76.94
64632;BME280;58358;50.936;0.246;2023-02-14T08:21:07;102657.66;;;1.53;77.23
64632;BME280;58358;50.936;0.246;2023-02-14T08:23:30;102657.35;;;1.92;77.11
64632;BME280;58358;50.936;0.246;2023-02-14T08:25:56;102660.38;;;2.50;76.74
64632;BME280;58358;50.936;0.246;2023-02-14T08:28:21;102663.20;;;2.30;77.18
64632;BME280;58358;50.936;0.246;2023-02-14T08:30:46;102658.08;;;2.84;75.77
64632;BME280;58358;50.936;0.246;2023-02-14T08:33:11;102659.66;;;3.81;73.35
64632;BME280;58358;50.936;0.246;2023-02-14T08:35:37;102659.77;;;3.29;76.44
64632;BME280;58358;50.936;0.246;2023-02-14T08:38:03;102661.80;;;3.88;73.62
64632;BME280;58358;50.936;0.246;2023-02-14T08:40:27;102661.62;;;4.03;72.58
64632;BME280;58358;50.936;0.246;2023-02-14T08:42:52;102665.80;;;3.79;72.44
64632;BME280;58358;50.936;0.246;2023-02-14T08:45:17;102662.49;;;4.21;72.39
64632;BME280;58358;50.936;0.246;2023-02-14T08:47:43;102663.55;;;4.52;72.11
64632;BME280;58358;50.936;0.246;2023-02-14T08:50:10;102662.90;;;4.91;70.87
64632;BME280;58358;50.936;0.246;2023-02-14T08:52:34;102661.96;;;4.81;72.11
64632;BME280;58358;50.936;0.246;2023-02-14T08:55:00;102662.04;;;5.40;69.44
64632;BME280;58358;50.936;0.246;2023-02-14T08:57:25;102663.51;;;5.52;69.08
64632;BME280;58358;50.936;0.246;2023-02-14T08:59:51;102665.55;;;5.90;67.68
64632;BME280;58358;50.936;0.246;2023-02-14T09:02:16;102661.48;;;5.31;70.40
64632;BME280;58358;50.936;0.246;2023-02-14T09:04:42;102663.77;;;5.61;69.87
64632;BME280;58358;50.936;0.246;2023-02-14T09:07:07;102665.80;;;6.39;68.95
64632;BME280;58358;50.936;0.246;2023-02-14T09:09:33;102663.03;;;5.59;71.87
64632;BME280;58358;50.936;0.246;2023-02-14T09:12:03;102667.09;;;5.80;73.03
64632;BME280;58358;50.936;0.246;2023-02-14T09:14:24;102665.06;;;5.43;75.40
64632;BME280;58358;50.936;0.246;2023-02-14T09:16:50;102662.79;;;6.44;73.31
64632;BME280;58358;50.936;0.246;2023-02-14T09:19:16;102656.28;;;7.12;70.92
64632;BME280;58358;50.936;0.246;2023-02-14T09:21:41;102656.65;;;6.98;70.69
64632;BME280;58358;50.936;0.246;2023-02-14T09:24:07;102659.43;;;5.81;74.55
64632;BME280;58358;50.936;0.246;2023-02-14T09:26:32;102664.59;;;6.69;73.25
64632;BME280;58358;50.936;0.246;2023-02-14T09:28:57;102659.40;;;6.61;72.89
64632;BME280;58358;50.936;0.246;2023-02-14T09:31:24;102655.46;;;7.28;71.38
64632;BME280;58358;50.936;0.246;2023-02-14T09:33:49;102656.11;;;6.76;75.50
64632;BME280;58358;50.936;0.246;2023-02-14T09:36:13;102659.80;;;6.35;74.03
64632;BME280;58358;50.936;0.246;2023-02-14T09:38:39;102655.82;;;6.41;76.06
64632;BME280;58358;50.936;0.246;2023-02-14T09:41:05;102647.65;;;7.48;72.87
64632;BME280;58358;50.936;0.246;2023-02-14T09:43:32;102647.38;;;8.42;70.63
64632;BME280;58358;50.936;0.246;2023-02-14T09:45:55;102645.65;;;7.06;75.46
64632;BME280;58358;50.936;0.246;2023-02-14T09:48:26;102650.28;;;7.39;74.96
64632;BME280;58358;50.936;0.246;2023-02-14T09:50:48;102645.90;;;8.17;71.78
64632;BME280;58358;50.936;0.246;2023-02-14T09:53:23;102647.06;;;8.12;70.82
64632;BME280;58358;50.936;0.246;2023-02-14T09:55:41;102649.53;;;6.11;76.83
64632;BME280;58358;50.936;0.246;2023-02-14T09:58:10;102647.29;;;5.58;78.80
64632;BME280;58358;50.936;0.246;2023-02-14T10:00:34;102640.53;;;8.06;74.05
64632;BME280;58358;50.936;0.246;2023-02-14T10:03:02;102639.91;;;7.90;73.77
64632;BME280;58358;50.936;0.246;2023-02-14T10:05:23;102634.23;;;8.95;70.83
64632;BME280;58358;50.936;0.246;2023-02-14T10:07:55;102629.74;;;8.68;70.44
64632;BME280;58358;50.936;0.246;2023-02-14T10:10:15;102632.31;;;9.59;67.62
64632;BME280;58358;50.936;0.246;2023-02-14T10:12:39;102627.94;;;8.99;70.20
64632;BME280;58358;50.936;0.246;2023-02-14T10:15:03;102628.28;;;7.91;74.52
64632;BME280;58358;50.936;0.246;2023-02-14T10:17:33;102626.90;;;8.19;73.90
64632;BME280;58358;50.936;0.246;2023-02-14T10:19:55;102626.73;;;7.53;76.62
64632;BME280;58358;50.936;0.246;2023-02-14T10:22:18;102628.06;;;7.33;75.76
64632;BME280;58358;50.936;0.246;2023-02-14T10:24:43;102627.57;;;8.54;73.71
64632;BME280;58358;50.936;0.246;2023-02-14T10:27:12;102627.03;;;8.09;74.62
64632;BME280;58358;50.936;0.246;2023-02-14T10:29:31;102623.98;;;8.70;72.07
64632;BME280;58358;50.936;0.246;2023-02-14T10:31:58;102622.07;;;9.08;71.73
64632;BME280;58358;50.936;0.246;2023-02-14T10:34:30;102623.40;;;9.16;71.88
64632;BME280;58358;50.936;0.246;2023-02-14T10:36:56;102625.85;;;9.96;69.14
64632;BME280;58358;50.936;0.246;2023-02-14T10:39:28;102623.59;;;9.32;70.79
64632;BME280;58358;50.936;0.246;2023-02-14T10:41:45;102624.96;;;9.77;68.09
64632;BME280;58358;50.936;0.246;2023-02-14T10:46:35;102620.50;;;9.13;70.98
64632;BME280;58358;50.936;0.246;2023-02-14T10:49:01;102621.91;;;8.54;75.63
64632;BME280;58358;50.936;0.246;2023-02-14T10:51:25;102621.94;;;9.72;72.05
64632;BME280;58358;50.936;0.246;2023-02-14T10:53:52;102623.23;;;9.66;70.42
64632;BME280;58358;50.936;0.246;2023-02-14T10:56:16;102623.44;;;10.70;67.55
64632;BME280;58358;50.936;0.246;2023-02-14T10:58:37;102622.50;;;10.07;67.63
64632;BME280;58358;50.936;0.246;2023-02-14T11:01:04;102616.89;;;8.62;73.00
64632;BME280;58358;50.936;0.246;2023-02-14T11:03:27;102622.32;;;9.74;70.05
64632;BME280;58358;50.936;0.246;2023-02-14T11:05:51;102617.85;;;10.05;68.71
64632;BME280;58358;50.936;0.246;2023-02-14T11:08:24;102615.35;;;8.90;71.36
64632;BME280;58358;50.936;0.246;2023-02-14T11:10:42;102615.03;;;7.88;73.86
64632;BME280;58358;50.936;0.246;2023-02-14T11:15:38;102614.73;;;9.68;69.64
64632;BME280;58358;50.936;0.246;2023-02-14T11:18:15;102607.92;;;10.77;66.05
64632;BME280;58358;50.936;0.246;2023-02-14T11:20:27;102606.10;;;9.95;68.28
64632;BME280;58358;50.936;0.246;2023-02-14T11:22:49;102604.66;;;9.86;68.06
64632;BME280;58358;50.936;0.246;2023-02-14T11:25:20;102602.29;;;10.49;67.97
64632;BME280;58358;50.936;0.246;2023-02-14T11:27:42;102596.56;;;9.24;71.65
64632;BME280;58358;50.936;0.246;2023-02-14T11:30:11;102597.59;;;9.44;72.68
64632;BME280;58358;50.936;0.246;2023-02-14T11:32:35;102590.20;;;8.64;73.12
64632;BME280;58358;50.936;0.246;2023-02-14T11:35:01;102588.22;;;8.15;80.55
64632;BME280;58358;50.936;0.246;2023-02-14T11:37:27;102587.08;;;9.49;73.40
64632;BME280;58358;50.936;0.246;2023-02-14T11:39:48;102581.04;;;8.70;74.33
64632;BME280;58358;50.936;0.246;2023-02-14T11:42:13;102581.87;;;8.61;75.55
64632;BME280;58358;50.936;0.246;2023-02-14T11:44:53;102580.71;;;9.40;74.89
64632;BME280;58358;50.936;0.246;2023-02-14T11:47:15;102577.09;;;9.83;71.37
64632;BME280;58358;50.936;0.246;2023-02-14T11:49:33;102572.76;;;10.57;70.11
64632;BME280;58358;50.936;0.246;2023-02-14T11:51:57;102571.15;;;7.97;76.54
64632;BME280;58358;50.936;0.246;2023-02-14T11:54:29;102568.10;;;8.65;73.51
64632;BME280;58358;50.936;0.246;2023-02-14T11:56:49;102569.20;;;9.10;73.49
64632;BME280;58358;50.936;0.246;2023-02-14T11:59:22;102566.61;;;8.06;76.45
64632;BME280;58358;50.936;0.246;2023-02-14T12:01:37;102562.32;;;8.70;73.96
64632;BME280;58358;50.936;0.246;2023-02-14T12:04:06;102557.36;;;8.05;76.16
64632;BME280;58358;50.936;0.246;2023-02-14T12:06:29;102556.05;;;8.39;77.36
64632;BME280;58358;50.936;0.246;2023-02-14T12:11:20;102552.39;;;8.78;74.88
64632;BME280;58358;50.936;0.246;2023-02-14T12:13:52;102548.08;;;8.36;75.44
64632;BME280;58358;50.936;0.246;2023-02-14T12:16:18;102543.71;;;8.71;76.79
64632;BME280;58358;50.936;0.246;2023-02-14T12:18:46;102542.02;;;7.96;78.15
64632;BME280;58358;50.936;0.246;2023-02-14T12:21:09;102541.10;;;7.63;80.35
64632;BME280;58358;50.936;0.246;2023-02-14T12:23:28;102536.21;;;7.64;80.98
64632;BME280;58358;50.936;0.246;2023-02-14T12:25:56;102535.74;;;7.78;78.95
64632;BME280;58358;50.936;0.246;2023-02-14T12:28:21;102533.82;;;8.47;77.36
64632;BME280;58358;50.936;0.246;2023-02-14T12:30:42;102534.46;;;9.19;74.26
64632;BME280;58358;50.936;0.246;2023-02-14T12:33:15;102530.29;;;9.39;72.78
64632;BME280;58358;50.936;0.246;2023-02-14T12:35:43;102524.43;;;9.51;72.91
64632;BME280;58358;50.936;0.246;2023-02-14T12:38:04;102519.99;;;8.95;73.94
64632;BME280;58358;50.936;0.246;2023-02-14T12:40:32;102517.90;;;8.22;77.26
64632;BME280;58358;50.936;0.246;2023-02-14T12:43:02;102515.09;;;9.27;73.42
64632;BME280;58358;50.936;0.246;2023-02-14T12:45:19;102512.41;;;9.69;72.26
64632;BME280;58358;50.936;0.246;2023-02-14T12:47:48;102507.29;;;9.58;71.21
64632;BME280;58358;50.936;0.246;2023-02-14T12:50:23;102508.04;;;9.09;72.77
64632;BME280;58358;50.936;0.246;2023-02-14T12:52:42;102506.94;;;9.66;70.58
64632;BME280;58358;50.936;0.246;2023-02-14T12:57:35;102501.32;;;9.04;71.16
64632;BME280;58358;50.936;0.246;2023-02-14T12:59:55;102498.58;;;9.04;69.67
64632;BME280;58358;50.936;0.246;2023-02-14T13:04:52;102494.40;;;8.65;70.68
64632;BME280;58358;50.936;0.246;2023-02-14T13:07:10;102491.95;;;9.48;69.12
64632;BME280;58358;50.936;0.246;2023-02-14T13:09:36;102490.76;;;9.19;68.07
64632;BME280;58358;50.936;0.246;2023-02-14T13:12:07;102482.09;;;8.38;70.83
64632;BME280;58358;50.936;0.246;2023-02-14T13:14:31;102481.49;;;9.36;67.88
64632;BME280;58358;50.936;0.246;2023-02-14T13:16:49;102478.80;;;7.82;72.01